createdAt,value
2022-07-29T00:00:18.926Z,15.44
2022-07-29T00:03:04.485Z,15.40
2022-07-29T00:05:32.429Z,15.40
2022-07-29T00:08:00.210Z,15.30
2022-07-29T00:10:28.266Z,15.30
2022-07-29T00:12:56.558Z,15.30
2022-07-29T00:15:24.515Z,15.30
2022-07-29T00:17:52.447Z,15.30
2022-07-29T00:20:20.352Z,15.20
2022-07-29T00:22:48.218Z,15.20
2022-07-29T00:25:15.910Z,15.20
2022-07-29T00:27:43.657Z,15.20
2022-07-29T00:30:12.031Z,15.20
2022-07-29T00:32:39.902Z,15.18
2022-07-29T00:35:27.221Z,15.16
2022-07-29T00:37:55.395Z,15.20
2022-07-29T00:40:23.799Z,15.10
2022-07-29T00:42:52.657Z,15.10
2022-07-29T00:45:20.226Z,15.10
2022-07-29T00:47:50.604Z,15.10
2022-07-29T00:50:18.419Z,15.10
2022-07-29T00:52:46.003Z,15.00
2022-07-29T00:55:16.546Z,15.00
2022-07-29T00:57:44.681Z,14.92
2022-07-29T01:00:19.409Z,14.82
2022-07-29T01:02:50.418Z,14.80
2022-07-29T01:05:20.682Z,14.70
2022-07-29T01:07:51.804Z,14.70
2022-07-29T01:10:20.267Z,14.60
2022-07-29T01:12:51.220Z,14.60
2022-07-29T01:15:18.714Z,14.60
2022-07-29T01:18:03.451Z,14.60
2022-07-29T01:20:57.737Z,14.52
2022-07-29T01:23:55.610Z,14.50
2022-07-29T01:26:34.659Z,14.54
2022-07-29T01:29:25.603Z,14.50
2022-07-29T01:32:27.730Z,14.50
2022-07-29T01:35:06.645Z,14.50
2022-07-29T01:37:57.352Z,14.50
2022-07-29T01:41:20.056Z,14.50
2022-07-29T01:43:52.896Z,14.50
2022-07-29T01:46:36.580Z,14.48
2022-07-29T01:49:16.115Z,14.40
2022-07-29T01:51:51.832Z,14.40
2022-07-29T01:54:36.582Z,14.32
2022-07-29T01:57:05.157Z,14.30
2022-07-29T01:59:33.024Z,14.30
2022-07-29T02:02:02.677Z,14.22
2022-07-29T02:04:30.440Z,14.20
2022-07-29T02:07:01.769Z,14.20
2022-07-29T02:09:30.359Z,14.20
2022-07-29T02:11:58.047Z,14.20
2022-07-29T02:14:25.659Z,14.18
2022-07-29T02:16:54.448Z,14.10
2022-07-29T02:19:23.154Z,14.10
2022-07-29T02:21:52.196Z,14.10
2022-07-29T02:24:20.199Z,14.00
2022-07-29T02:26:47.765Z,13.90
2022-07-29T02:29:15.731Z,13.90
2022-07-29T02:31:44.420Z,13.82
2022-07-29T02:34:12.698Z,13.80
2022-07-29T02:36:40.690Z,13.80
2022-07-29T02:39:08.221Z,13.80
2022-07-29T02:41:57.167Z,13.80
2022-07-29T02:44:29.050Z,13.80
2022-07-29T02:47:29.367Z,13.80
2022-07-29T02:50:14.137Z,13.80
2022-07-29T02:52:58.686Z,13.80
2022-07-29T02:55:55.547Z,13.80
2022-07-29T02:58:34.268Z,13.70
2022-07-29T03:01:14.824Z,13.76
2022-07-29T03:03:46.889Z,13.80
2022-07-29T03:06:37.729Z,13.80
2022-07-29T03:09:05.760Z,13.80
2022-07-29T03:11:46.402Z,13.80
2022-07-29T03:14:20.118Z,13.90
2022-07-29T03:16:48.726Z,13.90
2022-07-29T03:19:16.487Z,14.00
2022-07-29T03:21:44.079Z,14.04
2022-07-29T03:24:11.912Z,14.10
2022-07-29T03:26:39.677Z,14.20
2022-07-29T03:29:07.142Z,14.30
2022-07-29T03:31:35.648Z,14.40
2022-07-29T03:34:03.900Z,14.50
2022-07-29T03:36:31.657Z,14.60
2022-07-29T03:38:59.152Z,14.70
2022-07-29T03:41:27.086Z,14.90
2022-07-29T03:43:55.568Z,15.00
2022-07-29T03:46:24.450Z,15.10
2022-07-29T03:48:54.002Z,15.20
2022-07-29T03:51:33.372Z,15.30
2022-07-29T03:54:09.910Z,15.40
2022-07-29T03:56:47.041Z,15.54
2022-07-29T03:59:16.025Z,15.70
2022-07-29T04:01:43.861Z,15.80
2022-07-29T04:04:11.686Z,15.90
2022-07-29T04:06:43.848Z,15.90
2022-07-29T04:09:11.818Z,16.00
2022-07-29T04:12:01.339Z,16.10
2022-07-29T04:14:34.476Z,16.10
2022-07-29T04:17:03.069Z,16.20
2022-07-29T04:19:31.414Z,16.26
2022-07-29T04:22:00.342Z,16.30
2022-07-29T04:24:28.006Z,16.40
2022-07-29T04:26:55.673Z,16.50
2022-07-29T04:29:23.027Z,16.60
2022-07-29T04:31:50.912Z,16.70
2022-07-29T04:34:19.593Z,16.80
2022-07-29T04:36:47.543Z,16.80
2022-07-29T04:39:20.649Z,16.90
2022-07-29T04:41:52.460Z,16.90
2022-07-29T04:44:28.446Z,16.90
2022-07-29T04:46:58.163Z,16.94
2022-07-29T04:49:25.987Z,17.00
2022-07-29T04:51:54.095Z,17.10
2022-07-29T04:54:21.708Z,17.20
2022-07-29T04:56:49.628Z,17.30
2022-07-29T04:59:17.191Z,17.40
2022-07-29T05:01:44.998Z,17.58
2022-07-29T05:04:13.202Z,17.70
2022-07-29T05:06:41.717Z,17.90
2022-07-29T05:09:09.386Z,18.04
2022-07-29T05:11:36.886Z,18.18
2022-07-29T05:14:04.298Z,18.30
2022-07-29T05:16:31.958Z,18.40
2022-07-29T05:19:00.246Z,18.50
2022-07-29T05:21:28.205Z,18.60
2022-07-29T05:23:56.159Z,18.74
2022-07-29T05:26:23.930Z,18.90
2022-07-29T05:28:51.553Z,19.02
2022-07-29T05:31:19.081Z,19.10
2022-07-29T05:33:46.711Z,19.26
2022-07-29T05:36:14.201Z,19.40
2022-07-29T05:38:41.629Z,19.50
2022-07-29T05:41:09.401Z,19.56
2022-07-29T05:43:37.050Z,19.60
2022-07-29T05:46:04.608Z,19.60
2022-07-29T05:48:33.107Z,19.70
2022-07-29T05:51:00.958Z,19.80
2022-07-29T05:53:28.835Z,19.90
2022-07-29T05:55:56.495Z,19.90
2022-07-29T05:58:24.096Z,20.00
2022-07-29T06:00:51.511Z,20.10
2022-07-29T06:03:18.810Z,20.16
2022-07-29T06:05:49.205Z,20.24
2022-07-29T06:08:16.752Z,20.40
2022-07-29T06:10:45.064Z,20.50
2022-07-29T06:13:13.610Z,20.50
2022-07-29T06:15:41.864Z,20.60
2022-07-29T06:18:11.042Z,20.66
2022-07-29T06:20:38.545Z,20.70
2022-07-29T06:23:05.933Z,20.80
2022-07-29T06:25:36.237Z,20.80
2022-07-29T06:28:04.605Z,21.00
2022-07-29T06:30:32.126Z,21.04
2022-07-29T06:33:01.165Z,21.10
2022-07-29T06:35:41.145Z,21.20
2022-07-29T06:38:31.461Z,21.40
2022-07-29T06:41:02.439Z,21.40
2022-07-29T06:43:50.730Z,21.50
2022-07-29T06:46:24.052Z,21.60
2022-07-29T06:48:53.039Z,21.70
2022-07-29T06:51:23.250Z,21.70
2022-07-29T06:53:59.418Z,21.86
2022-07-29T06:56:32.295Z,22.00
2022-07-29T06:59:06.249Z,22.10
2022-07-29T07:01:33.784Z,22.20
2022-07-29T07:04:01.410Z,22.30
2022-07-29T07:06:29.130Z,22.30
2022-07-29T07:08:56.591Z,22.40
2022-07-29T07:11:24.260Z,22.50
2022-07-29T07:13:51.619Z,22.60
2022-07-29T07:16:19.181Z,22.60
2022-07-29T07:18:46.941Z,22.70
2022-07-29T07:21:19.178Z,22.80
2022-07-29T07:23:47.302Z,22.90
2022-07-29T07:26:15.149Z,22.80
2022-07-29T07:28:42.512Z,22.70
2022-07-29T07:31:10.802Z,22.80
2022-07-29T07:33:38.366Z,22.90
2022-07-29T07:36:05.838Z,22.90
2022-07-29T07:38:33.844Z,23.08
2022-07-29T07:41:01.515Z,23.20
2022-07-29T07:43:29.022Z,23.20
2022-07-29T07:45:56.472Z,23.26
2022-07-29T07:48:25.006Z,23.40
2022-07-29T07:50:52.214Z,23.50
2022-07-29T07:53:19.782Z,23.52
2022-07-29T07:56:09.313Z,23.70
2022-07-29T07:58:36.036Z,23.90
2022-07-29T08:01:04.430Z,24.00
2022-07-29T08:03:31.771Z,24.14
2022-07-29T08:05:59.486Z,24.24
2022-07-29T08:08:27.013Z,24.40
2022-07-29T08:10:54.371Z,24.40
2022-07-29T08:13:25.043Z,24.30
2022-07-29T08:15:58.184Z,24.40
2022-07-29T08:18:26.991Z,24.48
2022-07-29T08:20:54.893Z,24.36
2022-07-29T08:23:23.476Z,24.40
2022-07-29T08:25:54.830Z,24.40
2022-07-29T08:28:25.951Z,24.34
2022-07-29T08:30:53.820Z,24.30
2022-07-29T08:33:21.203Z,24.30
2022-07-29T08:35:50.859Z,24.20
2022-07-29T08:38:18.367Z,24.10
2022-07-29T08:40:46.999Z,24.00
2022-07-29T08:43:14.350Z,24.00
2022-07-29T08:45:48.554Z,23.90
2022-07-29T08:48:22.993Z,23.90
2022-07-29T08:50:57.114Z,24.00
2022-07-29T08:53:27.587Z,24.08
2022-07-29T08:55:55.333Z,24.20
2022-07-29T08:58:23.310Z,24.38
2022-07-29T09:00:58.087Z,24.50
2022-07-29T09:03:33.880Z,24.42
2022-07-29T09:06:02.647Z,24.40
2022-07-29T09:08:34.187Z,24.50
2022-07-29T09:11:04.146Z,24.60
2022-07-29T09:13:33.174Z,24.50
2022-07-29T09:16:04.430Z,24.76
2022-07-29T09:18:37.591Z,24.80
2022-07-29T09:21:25.666Z,24.80
2022-07-29T09:24:13.605Z,24.80
2022-07-29T09:26:46.013Z,24.82
2022-07-29T09:29:18.563Z,24.90
2022-07-29T09:31:51.748Z,24.90
2022-07-29T09:34:27.534Z,24.94
2022-07-29T09:36:55.895Z,25.00
2022-07-29T09:39:46.120Z,25.00
2022-07-29T09:42:14.601Z,25.10
2022-07-29T09:44:49.459Z,25.00
2022-07-29T09:47:18.694Z,25.00
2022-07-29T09:49:59.823Z,25.00
2022-07-29T09:52:28.221Z,25.00
2022-07-29T09:55:09.203Z,25.00
2022-07-29T09:57:37.172Z,25.10
2022-07-29T10:00:13.998Z,25.10
2022-07-29T10:02:44.588Z,25.10
2022-07-29T10:05:20.915Z,25.20
2022-07-29T10:07:53.501Z,25.30
2022-07-29T10:10:29.455Z,25.40
2022-07-29T10:13:03.012Z,25.40
2022-07-29T10:15:45.004Z,25.54
2022-07-29T10:18:14.687Z,25.62
2022-07-29T10:20:42.406Z,25.70
2022-07-29T10:23:10.834Z,25.60
2022-07-29T10:25:38.188Z,25.50
2022-07-29T10:28:06.707Z,25.50
2022-07-29T10:30:35.174Z,25.32
2022-07-29T10:33:15.567Z,25.36
2022-07-29T10:36:15.157Z,25.50
2022-07-29T10:39:22.429Z,25.60
2022-07-29T10:42:19.992Z,25.60
2022-07-29T10:44:47.848Z,25.70
2022-07-29T10:47:26.751Z,25.90
2022-07-29T10:50:03.461Z,26.10
2022-07-29T10:52:59.712Z,26.20
2022-07-29T10:55:43.111Z,26.30
2022-07-29T10:58:24.683Z,26.28
2022-07-29T11:00:54.197Z,26.04
2022-07-29T11:03:49.399Z,25.90
2022-07-29T11:06:18.229Z,25.70
2022-07-29T11:09:20.290Z,25.60
2022-07-29T11:11:53.519Z,25.40
2022-07-29T11:14:53.337Z,25.30
2022-07-29T11:17:21.045Z,25.20
2022-07-29T11:19:52.028Z,25.22
2022-07-29T11:22:34.237Z,25.38
2022-07-29T11:25:16.791Z,25.40
2022-07-29T11:27:47.637Z,25.50
2022-07-29T11:30:15.670Z,25.60
2022-07-29T11:35:38.567Z,26.00
2022-07-29T11:41:29.796Z,26.30
2022-07-29T11:44:02.246Z,26.38
2022-07-29T12:35:08.756Z,27.20
2022-07-29T12:38:56.662Z,27.48
